sensor_id;sensor_type;location;lat;lon;timestamp;pressure;altitude;pressure_sealevel;temperature;humidity
56594;BME280;42474;51.660;5.824;2022-12-07T00:02:23;101760.0;;;5.4;92.0
56594;BME280;42474;51.660;5.824;2022-12-07T00:07:23;101750.0;;;5.4;92.0
56594;BME280;42474;51.660;5.824;2022-12-07T00:12:23;101750.0;;;5.4;92.0
56594;BME280;42474;51.660;5.824;2022-12-07T00:17:23;101750.0;;;5.3;92.0
56594;BME280;42474;51.660;5.824;2022-12-07T00:22:23;101740.0;;;5.2;92.0
56594;BME280;42474;51.660;5.824;2022-12-07T00:27:23;101730.0;;;5.2;92.0
56594;BME280;42474;51.660;5.824;2022-12-07T00:32:23;101740.0;;;5.1;92.0
56594;BME280;42474;51.660;5.824;2022-12-07T00:37:23;101730.0;;;5.0;92.0
56594;BME280;42474;51.660;5.824;2022-12-07T00:42:23;101730.0;;;5.0;92.5
56594;BME280;42474;51.660;5.824;2022-12-07T00:47:23;101730.0;;;5.0;92.0
56594;BME280;42474;51.660;5.824;2022-12-07T00:52:23;101730.0;;;5.0;92.0
56594;BME280;42474;51.660;5.824;2022-12-07T00:57:23;101730.0;;;5.0;92.5
56594;BME280;42474;51.660;5.824;2022-12-07T01:02:23;101730.0;;;5.0;92.5
56594;BME280;42474;51.660;5.824;2022-12-07T01:07:23;101720.0;;;5.0;93.0
56594;BME280;42474;51.660;5.824;2022-12-07T01:12:23;101720.0;;;5.0;93.0
56594;BME280;42474;51.660;5.824;2022-12-07T01:17:23;101730.0;;;5.0;93.0
56594;BME280;42474;51.660;5.824;2022-12-07T01:22:23;101720.0;;;5.0;92.5
56594;BME280;42474;51.660;5.824;2022-12-07T01:27:23;101730.0;;;4.9;92.5
56594;BME280;42474;51.660;5.824;2022-12-07T01:32:23;101730.0;;;4.9;92.5
56594;BME280;42474;51.660;5.824;2022-12-07T01:37:23;101730.0;;;4.8;92.5
56594;BME280;42474;51.660;5.824;2022-12-07T01:42:23;101740.0;;;4.7;92.5
56594;BME280;42474;51.660;5.824;2022-12-07T01:47:23;101730.0;;;4.7;92.5
56594;BME280;42474;51.660;5.824;2022-12-07T01:52:29;101730.0;;;4.7;93.0
56594;BME280;42474;51.660;5.824;2022-12-07T01:57:23;101720.0;;;4.6;93.0
56594;BME280;42474;51.660;5.824;2022-12-07T02:02:26;101720.0;;;4.6;93.0
56594;BME280;42474;51.660;5.824;2022-12-07T02:07:23;101730.0;;;4.6;93.0
56594;BME280;42474;51.660;5.824;2022-12-07T02:12:23;101720.0;;;4.5;93.0
56594;BME280;42474;51.660;5.824;2022-12-07T02:17:31;101710.0;;;4.5;92.5
56594;BME280;42474;51.660;5.824;2022-12-07T02:23:59;101720.0;;;4.4;93.0
56594;BME280;42474;51.660;5.824;2022-12-07T02:32:34;101730.0;;;4.3;93.0
56594;BME280;42474;51.660;5.824;2022-12-07T02:37:26;101720.0;;;4.3;93.0
56594;BME280;42474;51.660;5.824;2022-12-07T02:42:28;101720.0;;;4.3;93.0
56594;BME280;42474;51.660;5.824;2022-12-07T02:47:24;101720.0;;;4.3;93.0
56594;BME280;42474;51.660;5.824;2022-12-07T02:52:23;101720.0;;;4.2;93.0
56594;BME280;42474;51.660;5.824;2022-12-07T02:57:54;101710.0;;;4.2;93.0
56594;BME280;42474;51.660;5.824;2022-12-07T03:02:51;101720.0;;;4.2;93.0
56594;BME280;42474;51.660;5.824;2022-12-07T03:08:02;101730.0;;;4.2;93.5
56594;BME280;42474;51.660;5.824;2022-12-07T03:12:28;101720.0;;;4.1;93.0
56594;BME280;42474;51.660;5.824;2022-12-07T03:17:25;101720.0;;;4.1;93.5
56594;BME280;42474;51.660;5.824;2022-12-07T03:22:23;101720.0;;;4.2;93.5
56594;BME280;42474;51.660;5.824;2022-12-07T03:27:26;101720.0;;;4.2;93.5
56594;BME280;42474;51.660;5.824;2022-12-07T03:32:30;101720.0;;;4.2;93.5
56594;BME280;42474;51.660;5.824;2022-12-07T03:37:26;101710.0;;;4.2;93.5
56594;BME280;42474;51.660;5.824;2022-12-07T03:42:23;101710.0;;;4.2;93.5
56594;BME280;42474;51.660;5.824;2022-12-07T03:47:52;101710.0;;;4.2;93.5
56594;BME280;42474;51.660;5.824;2022-12-07T03:52:28;101700.0;;;4.3;93.5
56594;BME280;42474;51.660;5.824;2022-12-07T03:57:24;101730.0;;;4.3;94.0
56594;BME280;42474;51.660;5.824;2022-12-07T04:02:26;101710.0;;;4.3;94.0
56594;BME280;42474;51.660;5.824;2022-12-07T04:07:23;101700.0;;;4.4;94.0
56594;BME280;42474;51.660;5.824;2022-12-07T04:12:23;101700.0;;;4.4;94.0
56594;BME280;42474;51.660;5.824;2022-12-07T04:17:23;101710.0;;;4.5;94.0
56594;BME280;42474;51.660;5.824;2022-12-07T04:22:23;101710.0;;;4.6;94.0
56594;BME280;42474;51.660;5.824;2022-12-07T04:27:23;101690.0;;;4.6;94.0
56594;BME280;42474;51.660;5.824;2022-12-07T04:32:23;101710.0;;;4.7;94.0
56594;BME280;42474;51.660;5.824;2022-12-07T04:37:23;101700.0;;;4.7;94.0
56594;BME280;42474;51.660;5.824;2022-12-07T04:42:23;101700.0;;;4.7;94.0
56594;BME280;42474;51.660;5.824;2022-12-07T04:47:23;101680.0;;;4.8;94.0
56594;BME280;42474;51.660;5.824;2022-12-07T04:52:23;101680.0;;;4.8;94.0
56594;BME280;42474;51.660;5.824;2022-12-07T04:57:23;101680.0;;;4.8;93.5
56594;BME280;42474;51.660;5.824;2022-12-07T05:02:23;101680.0;;;4.8;93.5
56594;BME280;42474;51.660;5.824;2022-12-07T05:07:23;101680.0;;;4.7;93.5
56594;BME280;42474;51.660;5.824;2022-12-07T05:12:23;101680.0;;;4.7;93.0
56594;BME280;42474;51.660;5.824;2022-12-07T05:17:23;101690.0;;;4.6;93.0
56594;BME280;42474;51.660;5.824;2022-12-07T05:22:23;101680.0;;;4.5;93.0
56594;BME280;42474;51.660;5.824;2022-12-07T05:27:23;101690.0;;;4.5;93.0
56594;BME280;42474;51.660;5.824;2022-12-07T05:32:23;101680.0;;;4.5;93.0
56594;BME280;42474;51.660;5.824;2022-12-07T05:37:23;101680.0;;;4.5;93.0
56594;BME280;42474;51.660;5.824;2022-12-07T05:42:23;101700.0;;;4.5;93.0
56594;BME280;42474;51.660;5.824;2022-12-07T05:47:23;101690.0;;;4.5;93.0
56594;BME280;42474;51.660;5.824;2022-12-07T05:52:23;101690.0;;;4.5;93.0
56594;BME280;42474;51.660;5.824;2022-12-07T06:02:23;101680.0;;;4.5;93.0
56594;BME280;42474;51.660;5.824;2022-12-07T06:07:23;101670.0;;;4.4;93.0
56594;BME280;42474;51.660;5.824;2022-12-07T06:12:23;101680.0;;;4.4;93.0
56594;BME280;42474;51.660;5.824;2022-12-07T06:17:23;101670.0;;;4.3;93.0
56594;BME280;42474;51.660;5.824;2022-12-07T06:22:23;101680.0;;;4.3;93.5
56594;BME280;42474;51.660;5.824;2022-12-07T06:27:23;101690.0;;;4.4;93.5
56594;BME280;42474;51.660;5.824;2022-12-07T06:32:23;101680.0;;;4.4;93.0
56594;BME280;42474;51.660;5.824;2022-12-07T06:37:23;101670.0;;;4.4;93.5
56594;BME280;42474;51.660;5.824;2022-12-07T06:42:23;101670.0;;;4.4;93.0
56594;BME280;42474;51.660;5.824;2022-12-07T06:47:23;101680.0;;;4.4;93.0
56594;BME280;42474;51.660;5.824;2022-12-07T06:52:23;101680.0;;;4.4;93.0
56594;BME280;42474;51.660;5.824;2022-12-07T06:57:23;101690.0;;;4.3;93.0
56594;BME280;42474;51.660;5.824;2022-12-07T07:02:23;101680.0;;;4.3;93.0
56594;BME280;42474;51.660;5.824;2022-12-07T07:07:23;101690.0;;;4.3;93.0
56594;BME280;42474;51.660;5.824;2022-12-07T07:12:23;101690.0;;;4.3;93.0
56594;BME280;42474;51.660;5.824;2022-12-07T07:17:23;101690.0;;;4.2;92.5
56594;BME280;42474;51.660;5.824;2022-12-07T07:22:23;101690.0;;;4.1;92.5
56594;BME280;42474;51.660;5.824;2022-12-07T07:27:23;101700.0;;;4.1;93.0
56594;BME280;42474;51.660;5.824;2022-12-07T07:32:23;101700.0;;;4.0;92.5
56594;BME280;42474;51.660;5.824;2022-12-07T07:37:23;101700.0;;;4.0;93.0
56594;BME280;42474;51.660;5.824;2022-12-07T07:42:23;101700.0;;;4.0;93.5
56594;BME280;42474;51.660;5.824;2022-12-07T07:47:23;101700.0;;;4.0;93.0
56594;BME280;42474;51.660;5.824;2022-12-07T07:52:23;101700.0;;;4.0;93.0
56594;BME280;42474;51.660;5.824;2022-12-07T07:57:23;101710.0;;;4.0;93.0
56594;BME280;42474;51.660;5.824;2022-12-07T08:02:23;101720.0;;;4.0;93.5
56594;BME280;42474;51.660;5.824;2022-12-07T08:07:23;101710.0;;;4.0;93.5
56594;BME280;42474;51.660;5.824;2022-12-07T08:12:23;101710.0;;;4.0;93.5
56594;BME280;42474;51.660;5.824;2022-12-07T08:17:23;101690.0;;;4.0;93.5
56594;BME280;42474;51.660;5.824;2022-12-07T08:22:23;101700.0;;;4.1;93.0
56594;BME280;42474;51.660;5.824;2022-12-07T08:27:23;101710.0;;;4.1;93.5
56594;BME280;42474;51.660;5.824;2022-12-07T08:32:23;101710.0;;;4.1;93.5
56594;BME280;42474;51.660;5.824;2022-12-07T08:37:23;101710.0;;;4.1;93.5
56594;BME280;42474;51.660;5.824;2022-12-07T08:42:23;101720.0;;;4.1;93.0
56594;BME280;42474;51.660;5.824;2022-12-07T08:47:24;101730.0;;;4.2;93.5
56594;BME280;42474;51.660;5.824;2022-12-07T08:52:23;101720.0;;;4.3;94.0
56594;BME280;42474;51.660;5.824;2022-12-07T08:57:23;101720.0;;;4.4;94.0
56594;BME280;42474;51.660;5.824;2022-12-07T09:02:23;101720.0;;;4.4;93.5
56594;BME280;42474;51.660;5.824;2022-12-07T09:07:24;101720.0;;;4.5;93.5
56594;BME280;42474;51.660;5.824;2022-12-07T09:12:23;101720.0;;;4.6;93.5
56594;BME280;42474;51.660;5.824;2022-12-07T09:17:23;101710.0;;;4.7;94.0
56594;BME280;42474;51.660;5.824;2022-12-07T09:22:23;101710.0;;;4.8;94.0
56594;BME280;42474;51.660;5.824;2022-12-07T09:27:23;101710.0;;;5.0;94.5
56594;BME280;42474;51.660;5.824;2022-12-07T09:32:23;101710.0;;;5.2;94.5
56594;BME280;42474;51.660;5.824;2022-12-07T09:37:23;101710.0;;;5.4;94.5
56594;BME280;42474;51.660;5.824;2022-12-07T09:42:34;101720.0;;;5.6;94.5
56594;BME280;42474;51.660;5.824;2022-12-07T09:47:23;101710.0;;;5.7;94.0
56594;BME280;42474;51.660;5.824;2022-12-07T09:52:29;101720.0;;;5.7;93.5
56594;BME280;42474;51.660;5.824;2022-12-07T09:57:33;101710.0;;;5.8;93.5
56594;BME280;42474;51.660;5.824;2022-12-07T10:02:43;101700.0;;;6.0;93.5
56594;BME280;42474;51.660;5.824;2022-12-07T10:07:23;101700.0;;;6.2;93.5
56594;BME280;42474;51.660;5.824;2022-12-07T10:12:23;101690.0;;;6.4;93.0
56594;BME280;42474;51.660;5.824;2022-12-07T10:17:40;101700.0;;;6.6;92.5
56594;BME280;42474;51.660;5.824;2022-12-07T10:22:23;101690.0;;;6.8;92.5
56594;BME280;42474;51.660;5.824;2022-12-07T10:27:27;101680.0;;;7.0;91.5
56594;BME280;42474;51.660;5.824;2022-12-07T10:32:34;101690.0;;;7.1;91.5
56594;BME280;42474;51.660;5.824;2022-12-07T10:37:23;101670.0;;;7.1;90.0
56594;BME280;42474;51.660;5.824;2022-12-07T10:42:26;101660.0;;;7.2;89.5
56594;BME280;42474;51.660;5.824;2022-12-07T10:47:36;101660.0;;;7.2;90.0
56594;BME280;42474;51.660;5.824;2022-12-07T10:53:01;101660.0;;;7.2;89.0
56594;BME280;42474;51.660;5.824;2022-12-07T10:58:31;101660.0;;;7.3;89.5
56594;BME280;42474;51.660;5.824;2022-12-07T11:03:45;101650.0;;;7.2;89.0
56594;BME280;42474;51.660;5.824;2022-12-07T11:08:32;101640.0;;;7.3;89.0
56594;BME280;42474;51.660;5.824;2022-12-07T11:14:01;101630.0;;;7.4;89.0
56594;BME280;42474;51.660;5.824;2022-12-07T11:17:48;101630.0;;;7.4;88.5
56594;BME280;42474;51.660;5.824;2022-12-07T11:22:49;101620.0;;;7.5;88.5
56594;BME280;42474;51.660;5.824;2022-12-07T11:27:48;101630.0;;;7.5;87.5
56594;BME280;42474;51.660;5.824;2022-12-07T11:33:04;101620.0;;;7.5;87.0
56594;BME280;42474;51.660;5.824;2022-12-07T11:37:25;101610.0;;;7.5;86.5
56594;BME280;42474;51.660;5.824;2022-12-07T11:42:30;101610.0;;;7.6;86.0
56594;BME280;42474;51.660;5.824;2022-12-07T11:47:26;101610.0;;;7.6;85.5
56594;BME280;42474;51.660;5.824;2022-12-07T11:52:30;101590.0;;;7.6;85.5
56594;BME280;42474;51.660;5.824;2022-12-07T11:57:35;101600.0;;;7.7;85.5
56594;BME280;42474;51.660;5.824;2022-12-07T12:02:39;101590.0;;;7.9;85.0
56594;BME280;42474;51.660;5.824;2022-12-07T12:07:27;101590.0;;;8.0;84.5
56594;BME280;42474;51.660;5.824;2022-12-07T12:12:54;101590.0;;;8.1;84.0
56594;BME280;42474;51.660;5.824;2022-12-07T12:19:22;101590.0;;;8.1;83.5
56594;BME280;42474;51.660;5.824;2022-12-07T12:22:28;101590.0;;;8.1;83.5
56594;BME280;42474;51.660;5.824;2022-12-07T12:27:38;101600.0;;;8.1;83.0
56594;BME280;42474;51.660;5.824;2022-12-07T12:32:38;101580.0;;;8.0;83.0
56594;BME280;42474;51.660;5.824;2022-12-07T12:37:42;101580.0;;;8.0;83.0
56594;BME280;42474;51.660;5.824;2022-12-07T12:42:43;101570.0;;;8.0;83.0
56594;BME280;42474;51.660;5.824;2022-12-07T12:47:53;101570.0;;;8.0;83.5
56594;BME280;42474;51.660;5.824;2022-12-07T12:53:20;101550.0;;;7.9;82.5
56594;BME280;42474;51.660;5.824;2022-12-07T12:57:33;101550.0;;;7.9;83.0
56594;BME280;42474;51.660;5.824;2022-12-07T13:02:28;101550.0;;;7.9;82.0
56594;BME280;42474;51.660;5.824;2022-12-07T13:07:55;101550.0;;;7.8;82.0
56594;BME280;42474;51.660;5.824;2022-12-07T13:12:23;101530.0;;;7.7;82.0
56594;BME280;42474;51.660;5.824;2022-12-07T13:18:04;101530.0;;;7.7;81.5
56594;BME280;42474;51.660;5.824;2022-12-07T13:22:46;101520.0;;;7.7;81.0
56594;BME280;42474;51.660;5.824;2022-12-07T13:27:24;101510.0;;;7.6;80.5
56594;BME280;42474;51.660;5.824;2022-12-07T13:32:25;101510.0;;;7.6;80.5
56594;BME280;42474;51.660;5.824;2022-12-07T13:37:27;101510.0;;;7.6;80.5
56594;BME280;42474;51.660;5.824;2022-12-07T13:42:25;101490.0;;;7.6;80.5
56594;BME280;42474;51.660;5.824;2022-12-07T13:47:41;101480.0;;;7.7;80.0
56594;BME280;42474;51.660;5.824;2022-12-07T13:52:29;101480.0;;;7.6;79.5
56594;BME280;42474;51.660;5.824;2022-12-07T13:57:26;101480.0;;;7.6;79.0
56594;BME280;42474;51.660;5.824;2022-12-07T14:02:26;101480.0;;;7.6;79.0
56594;BME280;42474;51.660;5.824;2022-12-07T14:07:26;101480.0;;;7.6;79.5
56594;BME280;42474;51.660;5.824;2022-12-07T14:12:24;101480.0;;;7.7;79.0
56594;BME280;42474;51.660;5.824;2022-12-07T14:17:27;101470.0;;;7.6;78.5
56594;BME280;42474;51.660;5.824;2022-12-07T14:22:27;101460.0;;;7.6;78.5
56594;BME280;42474;51.660;5.824;2022-12-07T14:27:24;101460.0;;;7.6;78.5
56594;BME280;42474;51.660;5.824;2022-12-07T14:32:25;101460.0;;;7.6;78.5
56594;BME280;42474;51.660;5.824;2022-12-07T14:37:23;101450.0;;;7.5;79.0
56594;BME280;42474;51.660;5.824;2022-12-07T14:42:27;101460.0;;;7.5;79.0
56594;BME280;42474;51.660;5.824;2022-12-07T14:47:24;101460.0;;;7.4;79.5
56594;BME280;42474;51.660;5.824;2022-12-07T14:52:28;101460.0;;;7.4;80.0
56594;BME280;42474;51.660;5.824;2022-12-07T14:57:23;101470.0;;;7.3;80.5
56594;BME280;42474;51.660;5.824;2022-12-07T15:02:23;101450.0;;;7.2;80.5
56594;BME280;42474;51.660;5.824;2022-12-07T15:07:23;101460.0;;;7.1;80.5
56594;BME280;42474;51.660;5.824;2022-12-07T15:12:23;101450.0;;;6.9;81.0
56594;BME280;42474;51.660;5.824;2022-12-07T15:17:23;101450.0;;;6.8;81.5
56594;BME280;42474;51.660;5.824;2022-12-07T15:22:23;101450.0;;;6.6;82.0
56594;BME280;42474;51.660;5.824;2022-12-07T15:27:23;101450.0;;;6.5;82.5
56594;BME280;42474;51.660;5.824;2022-12-07T15:32:23;101450.0;;;6.3;82.5
56594;BME280;42474;51.660;5.824;2022-12-07T15:37:23;101450.0;;;6.2;83.0
56594;BME280;42474;51.660;5.824;2022-12-07T15:42:23;101440.0;;;6.1;83.5
56594;BME280;42474;51.660;5.824;2022-12-07T15:47:23;101440.0;;;6.0;83.5
56594;BME280;42474;51.660;5.824;2022-12-07T15:52:23;101440.0;;;5.9;83.5
56594;BME280;42474;51.660;5.824;2022-12-07T15:57:23;101430.0;;;5.8;83.5
56594;BME280;42474;51.660;5.824;2022-12-07T16:02:24;101430.0;;;5.7;84.0
56594;BME280;42474;51.660;5.824;2022-12-07T16:07:23;101420.0;;;5.6;84.5
56594;BME280;42474;51.660;5.824;2022-12-07T16:12:23;101420.0;;;5.6;85.0
56594;BME280;42474;51.660;5.824;2022-12-07T16:17:23;101420.0;;;5.6;85.0
56594;BME280;42474;51.660;5.824;2022-12-07T16:22:23;101420.0;;;5.5;85.0
56594;BME280;42474;51.660;5.824;2022-12-07T16:27:23;101410.0;;;5.5;85.0
56594;BME280;42474;51.660;5.824;2022-12-07T16:32:23;101410.0;;;5.4;85.0
56594;BME280;42474;51.660;5.824;2022-12-07T16:37:23;101400.0;;;5.4;85.0
56594;BME280;42474;51.660;5.824;2022-12-07T16:42:23;101400.0;;;5.3;85.5
56594;BME280;42474;51.660;5.824;2022-12-07T16:47:23;101400.0;;;5.3;85.5
56594;BME280;42474;51.660;5.824;2022-12-07T16:52:23;101400.0;;;5.3;86.0
56594;BME280;42474;51.660;5.824;2022-12-07T16:57:23;101400.0;;;5.3;86.0
56594;BME280;42474;51.660;5.824;2022-12-07T17:02:25;101400.0;;;5.2;86.5
56594;BME280;42474;51.660;5.824;2022-12-07T17:07:23;101380.0;;;5.2;86.5
56594;BME280;42474;51.660;5.824;2022-12-07T17:12:23;101380.0;;;5.2;87.0
56594;BME280;42474;51.660;5.824;2022-12-07T17:17:23;101380.0;;;5.3;87.0
56594;BME280;42474;51.660;5.824;2022-12-07T17:22:23;101380.0;;;5.3;87.5
56594;BME280;42474;51.660;5.824;2022-12-07T17:27:23;101380.0;;;5.3;88.0
56594;BME280;42474;51.660;5.824;2022-12-07T17:32:23;101370.0;;;5.3;88.0
56594;BME280;42474;51.660;5.824;2022-12-07T17:37:23;101360.0;;;5.4;88.0
56594;BME280;42474;51.660;5.824;2022-12-07T17:42:24;101360.0;;;5.4;88.0
56594;BME280;42474;51.660;5.824;2022-12-07T17:47:23;101350.0;;;5.4;88.5
56594;BME280;42474;51.660;5.824;2022-12-07T17:52:23;101340.0;;;5.4;88.5
56594;BME280;42474;51.660;5.824;2022-12-07T17:57:23;101340.0;;;5.4;89.0
56594;BME280;42474;51.660;5.824;2022-12-07T18:02:23;101340.0;;;5.5;89.0
56594;BME280;42474;51.660;5.824;2022-12-07T18:07:23;101340.0;;;5.5;89.0
56594;BME280;42474;51.660;5.824;2022-12-07T18:12:23;101340.0;;;5.5;89.0
56594;BME280;42474;51.660;5.824;2022-12-07T18:17:23;101330.0;;;5.5;89.0
56594;BME280;42474;51.660;5.824;2022-12-07T18:22:23;101320.0;;;5.5;89.0
56594;BME280;42474;51.660;5.824;2022-12-07T18:27:23;101320.0;;;5.5;89.0
56594;BME280;42474;51.660;5.824;2022-12-07T18:32:23;101310.0;;;5.5;89.0
56594;BME280;42474;51.660;5.824;2022-12-07T18:37:23;101310.0;;;5.5;89.0
56594;BME280;42474;51.660;5.824;2022-12-07T18:42:23;101310.0;;;5.5;89.0
56594;BME280;42474;51.660;5.824;2022-12-07T18:47:23;101310.0;;;5.5;89.5
56594;BME280;42474;51.660;5.824;2022-12-07T18:52:23;101310.0;;;5.5;89.5
56594;BME280;42474;51.660;5.824;2022-12-07T18:57:23;101300.0;;;5.5;89.5
56594;BME280;42474;51.660;5.824;2022-12-07T19:02:23;101310.0;;;5.5;89.5
56594;BME280;42474;51.660;5.824;2022-12-07T19:07:23;101310.0;;;5.5;89.5
56594;BME280;42474;51.660;5.824;2022-12-07T19:12:23;101310.0;;;5.5;89.5
56594;BME280;42474;51.660;5.824;2022-12-07T19:17:23;101300.0;;;5.4;89.5
56594;BME280;42474;51.660;5.824;2022-12-07T19:22:23;101300.0;;;5.4;89.5
56594;BME280;42474;51.660;5.824;2022-12-07T19:27:23;101300.0;;;5.4;89.5
56594;BME280;42474;51.660;5.824;2022-12-07T19:32:24;101290.0;;;5.4;89.5
56594;BME280;42474;51.660;5.824;2022-12-07T19:37:23;101290.0;;;5.5;90.0
56594;BME280;42474;51.660;5.824;2022-12-07T19:42:23;101290.0;;;5.5;90.0
56594;BME280;42474;51.660;5.824;2022-12-07T19:47:23;101290.0;;;5.5;90.0
56594;BME280;42474;51.660;5.824;2022-12-07T19:52:23;101300.0;;;5.6;89.5
56594;BME280;42474;51.660;5.824;2022-12-07T19:57:23;101290.0;;;5.6;89.5
56594;BME280;42474;51.660;5.824;2022-12-07T20:02:23;101290.0;;;5.6;90.0
56594;BME280;42474;51.660;5.824;2022-12-07T20:07:23;101290.0;;;5.6;90.0
56594;BME280;42474;51.660;5.824;2022-12-07T20:12:23;101290.0;;;5.6;89.5
56594;BME280;42474;51.660;5.824;2022-12-07T20:17:23;101270.0;;;5.7;90.0
56594;BME280;42474;51.660;5.824;2022-12-07T20:22:23;101260.0;;;5.7;90.0
56594;BME280;42474;51.660;5.824;2022-12-07T20:27:23;101270.0;;;5.7;90.0
56594;BME280;42474;51.660;5.824;2022-12-07T20:32:23;101260.0;;;5.7;90.0
56594;BME280;42474;51.660;5.824;2022-12-07T20:37:23;101260.0;;;5.7;90.0
56594;BME280;42474;51.660;5.824;2022-12-07T20:42:23;101250.0;;;5.7;90.0
56594;BME280;42474;51.660;5.824;2022-12-07T20:47:23;101250.0;;;5.7;90.0
56594;BME280;42474;51.660;5.824;2022-12-07T20:52:23;101240.0;;;5.7;90.0
56594;BME280;42474;51.660;5.824;2022-12-07T20:57:23;101230.0;;;5.7;90.0
56594;BME280;42474;51.660;5.824;2022-12-07T21:02:24;101240.0;;;5.6;90.0
56594;BME280;42474;51.660;5.824;2022-12-07T21:07:24;101230.0;;;5.6;90.0
56594;BME280;42474;51.660;5.824;2022-12-07T21:12:23;101220.0;;;5.6;90.0
56594;BME280;42474;51.660;5.824;2022-12-07T21:17:23;101210.0;;;5.6;90.0
56594;BME280;42474;51.660;5.824;2022-12-07T21:22:23;101210.0;;;5.5;90.0
56594;BME280;42474;51.660;5.824;2022-12-07T21:27:23;101220.0;;;5.5;90.0
56594;BME280;42474;51.660;5.824;2022-12-07T21:32:23;101210.0;;;5.4;90.0
56594;BME280;42474;51.660;5.824;2022-12-07T21:37:23;101200.0;;;5.4;90.0
56594;BME280;42474;51.660;5.824;2022-12-07T21:42:23;101200.0;;;5.3;90.0
56594;BME280;42474;51.660;5.824;2022-12-07T21:47:23;101200.0;;;5.3;90.0
56594;BME280;42474;51.660;5.824;2022-12-07T21:52:23;101200.0;;;5.3;90.0
56594;BME280;42474;51.660;5.824;2022-12-07T21:57:23;101190.0;;;5.2;90.0
56594;BME280;42474;51.660;5.824;2022-12-07T22:02:23;101190.0;;;5.2;90.5
56594;BME280;42474;51.660;5.824;2022-12-07T22:07:23;101190.0;;;5.1;90.5
56594;BME280;42474;51.660;5.824;2022-12-07T22:12:23;101180.0;;;5.1;90.5
56594;BME280;42474;51.660;5.824;2022-12-07T22:17:23;101180.0;;;5.1;90.5
56594;BME280;42474;51.660;5.824;2022-12-07T22:22:23;101180.0;;;5.1;90.5
56594;BME280;42474;51.660;5.824;2022-12-07T22:27:23;101170.0;;;5.0;91.0
56594;BME280;42474;51.660;5.824;2022-12-07T22:32:23;101170.0;;;5.0;91.0
56594;BME280;42474;51.660;5.824;2022-12-07T22:37:25;101150.0;;;5.0;91.5
56594;BME280;42474;51.660;5.824;2022-12-07T22:42:23;101160.0;;;5.0;91.0
56594;BME280;42474;51.660;5.824;2022-12-07T22:47:23;101160.0;;;5.0;91.0
56594;BME280;42474;51.660;5.824;2022-12-07T22:52:23;101140.0;;;5.0;91.0
56594;BME280;42474;51.660;5.824;2022-12-07T22:57:23;101130.0;;;5.0;91.0
56594;BME280;42474;51.660;5.824;2022-12-07T23:02:23;101120.0;;;5.0;91.5
56594;BME280;42474;51.660;5.824;2022-12-07T23:07:23;101110.0;;;5.0;91.0
56594;BME280;42474;51.660;5.824;2022-12-07T23:12:23;101110.0;;;5.0;91.5
56594;BME280;42474;51.660;5.824;2022-12-07T23:17:23;101110.0;;;5.0;91.5
56594;BME280;42474;51.660;5.824;2022-12-07T23:22:23;101100.0;;;5.0;91.5
56594;BME280;42474;51.660;5.824;2022-12-07T23:27:23;101100.0;;;5.0;91.5
56594;BME280;42474;51.660;5.824;2022-12-07T23:32:23;101090.0;;;4.9;91.5
56594;BME280;42474;51.660;5.824;2022-12-07T23:37:23;101090.0;;;4.9;91.5
56594;BME280;42474;51.660;5.824;2022-12-07T23:42:23;101090.0;;;4.9;91.0
56594;BME280;42474;51.660;5.824;2022-12-07T23:47:23;101090.0;;;4.9;91.0
56594;BME280;42474;51.660;5.824;2022-12-07T23:52:23;101080.0;;;4.9;91.0
56594;BME280;42474;51.660;5.824;2022-12-07T23:57:23;101080.0;;;4.8;91.0
